createdAt,value
2018-01-26T00:00:43.171Z,92.30
2018-01-26T00:03:10.642Z,92.40
2018-01-26T00:05:38.114Z,92.40
2018-01-26T00:08:05.734Z,92.20
2018-01-26T00:10:33.269Z,92.40
2018-01-26T00:13:00.747Z,92.20
2018-01-26T00:15:28.316Z,92.20
2018-01-26T00:17:55.794Z,92.20
2018-01-26T00:20:23.359Z,92.20
2018-01-26T00:22:50.935Z,92.40
2018-01-26T00:25:18.548Z,92.40
2018-01-26T00:27:46.791Z,92.50
2018-01-26T00:30:14.287Z,92.50
2018-01-26T00:32:42.550Z,92.80
2018-01-26T00:35:10.118Z,92.50
2018-01-26T00:37:37.691Z,92.50
2018-01-26T00:40:05.173Z,92.40
2018-01-26T00:42:33.429Z,92.50
2018-01-26T00:45:00.922Z,92.50
2018-01-26T00:47:28.403Z,92.50
2018-01-26T00:49:56.718Z,92.50
2018-01-26T00:52:24.280Z,92.50
2018-01-26T00:54:52.551Z,92.70
2018-01-26T00:57:20.027Z,92.70
2018-01-26T00:59:49.026Z,93.00
2018-01-26T01:02:16.590Z,93.00
2018-01-26T01:04:44.163Z,92.70
2018-01-26T01:07:11.684Z,92.60
2018-01-26T01:09:39.155Z,92.70
2018-01-26T01:12:06.710Z,92.70
2018-01-26T01:14:34.204Z,92.80
2018-01-26T01:17:01.683Z,92.70
2018-01-26T01:19:29.159Z,92.60
2018-01-26T01:21:56.650Z,92.50
2018-01-26T01:24:25.672Z,92.50
2018-01-26T01:26:53.152Z,92.50
2018-01-26T01:29:21.424Z,92.70
2018-01-26T01:31:48.895Z,92.70
2018-01-26T01:34:16.371Z,92.70
2018-01-26T01:36:43.938Z,92.80
2018-01-26T01:39:11.438Z,92.90
2018-01-26T01:41:38.919Z,92.90
2018-01-26T01:44:06.487Z,93.00
2018-01-26T01:46:34.019Z,92.70
2018-01-26T01:49:13.367Z,92.90
2018-01-26T01:51:40.843Z,92.90
2018-01-26T01:54:08.322Z,92.90
2018-01-26T01:56:36.592Z,92.90
2018-01-26T01:59:04.062Z,92.90
2018-01-26T02:01:31.534Z,92.90
2018-01-26T02:03:59.450Z,92.90
2018-01-26T02:06:27.690Z,92.90
2018-01-26T02:08:55.171Z,92.90
2018-01-26T02:11:22.760Z,92.70
2018-01-26T02:13:51.003Z,92.80
2018-01-26T02:16:18.478Z,92.80
2018-01-26T02:18:45.980Z,92.90
2018-01-26T02:21:13.454Z,92.90
2018-01-26T02:23:41.014Z,92.90
2018-01-26T02:26:08.519Z,93.20
2018-01-26T02:28:36.058Z,92.80
2018-01-26T02:31:05.044Z,92.90
2018-01-26T02:33:32.546Z,92.90
2018-01-26T02:36:00.107Z,92.90
2018-01-26T02:38:27.583Z,92.70
2018-01-26T02:40:56.590Z,92.90
2018-01-26T02:43:24.071Z,92.90
2018-01-26T02:45:52.317Z,92.90
2018-01-26T02:48:19.812Z,92.90
2018-01-26T02:50:47.383Z,92.90
2018-01-26T02:53:15.675Z,92.80
2018-01-26T02:55:43.175Z,92.80
2018-01-26T02:58:10.750Z,92.80
2018-01-26T03:00:38.290Z,92.80
2018-01-26T03:03:05.895Z,92.90
2018-01-26T03:05:33.474Z,92.80
2018-01-26T03:08:00.953Z,92.80
2018-01-26T03:10:28.450Z,92.80
2018-01-26T03:12:55.930Z,92.90
2018-01-26T03:15:23.407Z,92.80
2018-01-26T03:17:51.010Z,92.70
2018-01-26T03:20:19.251Z,92.70
2018-01-26T03:22:46.730Z,92.60
2018-01-26T03:25:14.327Z,92.70
2018-01-26T03:27:41.806Z,92.80
2018-01-26T03:30:10.043Z,92.80
2018-01-26T03:32:37.539Z,92.80
2018-01-26T03:35:05.015Z,92.80
2018-01-26T03:37:32.486Z,93.10
2018-01-26T03:40:00.093Z,92.80
2018-01-26T03:42:27.589Z,92.80
2018-01-26T03:44:55.068Z,92.80
2018-01-26T03:47:22.606Z,92.90
2018-01-26T03:49:50.143Z,92.80
2018-01-26T03:52:18.116Z,92.80
2018-01-26T03:54:45.704Z,92.80
2018-01-26T03:57:13.188Z,92.80
2018-01-26T03:59:41.458Z,92.70
2018-01-26T04:02:09.737Z,92.70
2018-01-26T04:04:37.319Z,92.70
2018-01-26T04:07:04.799Z,92.80
2018-01-26T04:09:32.291Z,92.70
2018-01-26T04:11:59.763Z,92.70
2018-01-26T04:14:27.243Z,92.70
2018-01-26T04:16:54.735Z,92.70
2018-01-26T04:19:22.275Z,92.70
2018-01-26T04:21:49.823Z,92.70
2018-01-26T04:24:18.094Z,92.70
2018-01-26T04:26:45.566Z,92.70
2018-01-26T04:29:13.043Z,92.60
2018-01-26T04:31:40.543Z,93.10
2018-01-26T04:34:08.082Z,93.20
2018-01-26T04:36:35.654Z,93.10
2018-01-26T04:39:03.151Z,93.00
2018-01-26T04:41:31.398Z,93.30
2018-01-26T04:43:58.917Z,93.30
2018-01-26T04:46:26.419Z,93.30
2018-01-26T04:48:53.894Z,93.20
2018-01-26T04:51:21.378Z,93.20
2018-01-26T04:53:49.001Z,93.30
2018-01-26T04:56:16.573Z,93.30
2018-01-26T04:58:44.111Z,93.30
2018-01-26T05:01:11.717Z,93.30
2018-01-26T05:03:39.256Z,93.30
2018-01-26T05:06:06.826Z,93.30
2018-01-26T05:08:34.326Z,93.30
2018-01-26T05:11:02.568Z,93.40
2018-01-26T05:13:30.060Z,93.30
2018-01-26T05:15:57.554Z,93.10
2018-01-26T05:18:25.851Z,92.70
2018-01-26T05:20:53.423Z,92.60
2018-01-26T05:23:20.996Z,92.70
2018-01-26T05:25:48.568Z,92.70
2018-01-26T05:28:16.043Z,92.70
2018-01-26T05:30:43.610Z,92.70
2018-01-26T05:33:11.086Z,92.90
2018-01-26T05:35:38.619Z,92.80
2018-01-26T05:38:06.134Z,92.30
2018-01-26T05:40:33.659Z,92.50
2018-01-26T05:45:02.159Z,92.30
2018-01-26T05:47:29.634Z,92.40
2018-01-26T05:49:57.161Z,92.30
2018-01-26T05:52:24.690Z,92.40
2018-01-26T05:54:52.166Z,92.70
2018-01-26T05:57:20.482Z,93.10
2018-01-26T05:59:47.975Z,92.70
2018-01-26T06:02:15.460Z,92.70
2018-01-26T06:04:42.958Z,92.70
2018-01-26T06:07:10.460Z,92.70
2018-01-26T06:09:38.003Z,92.70
2018-01-26T06:12:05.505Z,92.80
2018-01-26T06:14:33.074Z,92.60
2018-01-26T06:17:01.323Z,92.40
2018-01-26T06:19:28.906Z,92.40
2018-01-26T06:21:56.422Z,92.50
2018-01-26T06:24:23.904Z,92.30
2018-01-26T06:26:51.439Z,92.30
2018-01-26T06:29:19.703Z,92.50
2018-01-26T06:31:47.274Z,92.40
2018-01-26T06:34:14.755Z,92.80
2018-01-26T06:36:42.354Z,92.80
2018-01-26T06:39:09.927Z,92.70
2018-01-26T06:41:37.500Z,92.80
2018-01-26T06:44:04.995Z,92.80
2018-01-26T06:46:32.507Z,92.80
2018-01-26T06:49:00.082Z,92.80
2018-01-26T06:51:27.663Z,92.90
2018-01-26T06:53:55.911Z,92.60
2018-01-26T06:56:23.391Z,92.50
2018-01-26T06:58:50.896Z,92.80
2018-01-26T07:01:19.201Z,92.80
2018-01-26T07:03:46.720Z,92.80
2018-01-26T07:06:14.243Z,92.70
2018-01-26T07:08:41.715Z,92.70
2018-01-26T07:11:09.191Z,92.80
2018-01-26T07:13:36.757Z,92.80
2018-01-26T07:16:04.329Z,92.80
2018-01-26T07:18:31.867Z,92.80
2018-01-26T07:20:59.442Z,92.60
2018-01-26T07:23:26.915Z,92.50
2018-01-26T07:25:54.403Z,92.50
2018-01-26T07:28:22.671Z,92.30
2018-01-26T07:30:50.166Z,92.30
2018-01-26T07:33:17.642Z,92.30
2018-01-26T07:35:45.123Z,92.30
2018-01-26T07:38:12.611Z,92.30
2018-01-26T07:40:40.083Z,92.60
2018-01-26T07:43:07.575Z,92.20
2018-01-26T07:45:35.059Z,92.20
2018-01-26T07:48:02.540Z,92.30
2018-01-26T07:50:30.039Z,92.50
2018-01-26T07:52:57.575Z,92.40
2018-01-26T07:55:25.151Z,92.20
2018-01-26T07:57:52.627Z,92.20
2018-01-26T08:00:20.874Z,92.40
2018-01-26T08:02:48.375Z,92.30
2018-01-26T08:05:15.943Z,92.10
2018-01-26T08:07:43.897Z,92.00
2018-01-26T08:10:11.363Z,92.10
2018-01-26T08:12:38.899Z,92.20
2018-01-26T08:15:06.383Z,92.20
2018-01-26T08:17:33.907Z,92.20
2018-01-26T08:20:01.479Z,92.30
2018-01-26T08:22:28.957Z,92.10
2018-01-26T08:24:56.831Z,92.30
2018-01-26T08:27:24.457Z,92.50
2018-01-26T08:29:52.725Z,92.00
2018-01-26T08:32:20.214Z,92.00
2018-01-26T08:34:47.686Z,92.10
2018-01-26T08:37:15.179Z,91.90
2018-01-26T08:39:42.655Z,91.90
2018-01-26T08:42:10.211Z,92.00
2018-01-26T08:44:37.748Z,92.10
2018-01-26T08:47:05.219Z,92.20
2018-01-26T08:49:32.707Z,92.00
2018-01-26T08:52:00.183Z,91.80
2018-01-26T08:54:27.702Z,91.90
2018-01-26T08:56:55.183Z,91.80
2018-01-26T08:59:23.448Z,91.70
2018-01-26T09:01:50.939Z,91.70
2018-01-26T09:04:19.216Z,91.40
2018-01-26T09:06:46.703Z,91.40
2018-01-26T09:09:14.947Z,91.50
2018-01-26T09:11:42.579Z,91.20
2018-01-26T09:14:10.062Z,90.90
2018-01-26T09:16:37.621Z,90.80
2018-01-26T09:19:05.192Z,91.10
2018-01-26T09:21:32.769Z,90.90
2018-01-26T09:24:00.259Z,91.10
2018-01-26T09:26:27.738Z,91.30
2018-01-26T09:28:55.247Z,91.30
2018-01-26T09:31:22.749Z,91.10
2018-01-26T09:33:50.286Z,91.20
2018-01-26T09:36:17.762Z,91.40
2018-01-26T09:38:45.326Z,91.50
2018-01-26T09:41:12.898Z,92.00
2018-01-26T09:43:40.367Z,91.10
2018-01-26T09:46:07.854Z,91.10
2018-01-26T09:48:36.143Z,91.10
2018-01-26T09:51:03.699Z,91.10
2018-01-26T09:53:31.275Z,91.00
2018-01-26T09:55:58.855Z,90.40
2018-01-26T09:58:27.106Z,90.60
2018-01-26T10:00:54.645Z,90.60
2018-01-26T10:03:22.135Z,90.60
2018-01-26T10:05:49.611Z,90.60
2018-01-26T10:08:17.115Z,90.30
2018-01-26T10:10:44.694Z,90.60
2018-01-26T10:13:12.263Z,90.00
2018-01-26T10:15:39.866Z,90.10
2018-01-26T10:18:07.407Z,90.20
2018-01-26T10:20:35.695Z,89.80
2018-01-26T10:23:03.167Z,89.80
2018-01-26T10:25:30.943Z,88.30
2018-01-26T10:27:58.418Z,88.30
2018-01-26T10:30:26.711Z,86.10
2018-01-26T10:32:55.059Z,86.30
2018-01-26T10:35:22.572Z,86.40
2018-01-26T10:37:50.828Z,85.50
2018-01-26T10:40:18.319Z,85.50
2018-01-26T10:42:45.811Z,84.30
2018-01-26T10:45:14.054Z,82.90
2018-01-26T10:47:41.531Z,82.80
2018-01-26T10:50:09.053Z,82.80
2018-01-26T10:52:36.530Z,82.70
2018-01-26T10:55:04.059Z,83.50
2018-01-26T10:57:31.542Z,83.60
2018-01-26T10:59:59.107Z,82.60
2018-01-26T11:02:26.583Z,82.20
2018-01-26T11:04:54.063Z,82.50
2018-01-26T11:07:22.335Z,79.30
2018-01-26T11:09:49.906Z,79.30
2018-01-26T11:12:17.398Z,80.10
2018-01-26T11:14:45.644Z,80.90
2018-01-26T11:17:13.119Z,80.90
2018-01-26T11:19:40.651Z,80.90
2018-01-26T11:22:08.132Z,78.00
2018-01-26T11:24:35.622Z,77.90
2018-01-26T11:27:03.096Z,77.80
2018-01-26T11:29:30.907Z,77.70
2018-01-26T11:31:59.148Z,78.90
2018-01-26T11:34:26.657Z,78.80
2018-01-26T11:36:54.154Z,77.50
2018-01-26T11:39:21.677Z,79.90
2018-01-26T11:41:49.275Z,80.30
2018-01-26T11:44:16.755Z,80.40
2018-01-26T11:46:45.016Z,78.00
2018-01-26T11:49:12.491Z,78.00
2018-01-26T11:51:39.975Z,78.00
2018-01-26T11:54:08.236Z,77.20
2018-01-26T11:56:35.723Z,77.10
2018-01-26T11:59:03.220Z,78.00
2018-01-26T12:01:31.484Z,78.10
2018-01-26T12:03:58.979Z,78.10
2018-01-26T12:06:27.227Z,75.40
2018-01-26T12:08:54.746Z,75.30
2018-01-26T12:11:22.245Z,75.60
2018-01-26T12:13:49.723Z,77.20
2018-01-26T12:16:17.228Z,78.20
2018-01-26T12:18:44.703Z,77.20
2018-01-26T12:21:12.988Z,76.10
2018-01-26T12:23:40.463Z,75.20
2018-01-26T12:26:08.777Z,76.10
2018-01-26T12:28:36.279Z,75.90
2018-01-26T12:31:03.756Z,74.10
2018-01-26T12:33:31.247Z,75.20
2018-01-26T12:35:58.722Z,74.70
2018-01-26T12:38:26.307Z,72.70
2018-01-26T12:40:54.588Z,70.70
2018-01-26T12:43:22.075Z,70.70
2018-01-26T12:45:50.327Z,71.30
2018-01-26T12:48:17.807Z,71.30
2018-01-26T12:50:45.293Z,71.60
2018-01-26T12:53:12.767Z,73.80
2018-01-26T12:55:41.383Z,73.60
2018-01-26T12:58:08.863Z,73.60
2018-01-26T13:00:36.360Z,73.50
2018-01-26T13:03:03.859Z,73.30
2018-01-26T13:05:31.365Z,73.30
2018-01-26T13:07:58.938Z,74.60
2018-01-26T13:10:26.510Z,73.30
2018-01-26T13:12:54.006Z,73.10
2018-01-26T13:15:21.553Z,72.40
2018-01-26T13:17:49.090Z,73.40
2018-01-26T13:20:16.579Z,73.20
2018-01-26T13:22:44.851Z,72.60
2018-01-26T13:25:12.337Z,72.40
2018-01-26T13:27:40.583Z,71.70
2018-01-26T13:30:08.390Z,71.50
2018-01-26T13:32:35.959Z,71.80
2018-01-26T13:35:03.461Z,72.30
2018-01-26T13:37:30.950Z,71.30
2018-01-26T13:39:58.503Z,71.80
2018-01-26T13:42:26.017Z,72.40
2018-01-26T13:44:53.535Z,71.50
2018-01-26T13:47:21.794Z,72.00
2018-01-26T13:49:49.374Z,71.90
2018-01-26T13:52:16.942Z,72.60
2018-01-26T13:54:44.456Z,72.30
2018-01-26T13:57:11.994Z,72.30
2018-01-26T13:59:39.490Z,73.60
2018-01-26T14:02:06.967Z,73.00
2018-01-26T14:04:34.463Z,73.30
2018-01-26T14:07:01.942Z,73.10
2018-01-26T14:09:29.428Z,74.00
2018-01-26T14:11:56.915Z,73.60
2018-01-26T14:14:24.434Z,75.40
2018-01-26T14:16:51.929Z,77.60
2018-01-26T14:19:19.432Z,76.60
2018-01-26T14:21:47.716Z,75.70
2018-01-26T14:24:15.211Z,75.70
2018-01-26T14:26:42.685Z,76.30
2018-01-26T14:29:10.254Z,76.90
2018-01-26T14:31:37.735Z,76.70
2018-01-26T14:34:05.269Z,77.40
2018-01-26T14:36:32.755Z,78.20
2018-01-26T14:39:01.015Z,77.30
2018-01-26T14:41:28.490Z,77.30
2018-01-26T14:43:55.971Z,77.20
2018-01-26T14:46:23.456Z,76.20
2018-01-26T14:48:51.702Z,77.10
2018-01-26T14:51:19.498Z,77.00
2018-01-26T14:53:47.067Z,76.90
2018-01-26T14:56:14.550Z,76.90
2018-01-26T14:58:42.832Z,77.50
2018-01-26T15:01:11.815Z,77.00
2018-01-26T15:03:39.339Z,76.90
2018-01-26T15:06:06.815Z,76.70
2018-01-26T15:08:34.346Z,76.70
2018-01-26T15:11:01.960Z,76.70
2018-01-26T15:13:29.442Z,78.80
2018-01-26T15:15:56.926Z,78.60
2018-01-26T15:18:24.443Z,79.50
2018-01-26T15:20:52.727Z,79.70
2018-01-26T15:23:20.971Z,80.10
2018-01-26T15:25:48.475Z,80.10
2018-01-26T15:28:15.957Z,81.10
2018-01-26T15:30:44.199Z,81.80
2018-01-26T15:33:11.685Z,80.90
2018-01-26T15:35:39.155Z,80.80
2018-01-26T15:38:06.647Z,80.90
2018-01-26T15:40:34.119Z,80.80
2018-01-26T15:43:01.590Z,81.70
2018-01-26T15:45:29.192Z,82.40
2018-01-26T15:47:56.662Z,82.60
2018-01-26T15:50:24.218Z,82.50
2018-01-26T15:52:51.936Z,83.20
2018-01-26T15:55:19.406Z,83.00
2018-01-26T15:57:46.899Z,83.90
2018-01-26T16:00:14.394Z,83.50
2018-01-26T16:02:41.891Z,83.70
2018-01-26T16:05:09.426Z,84.30
2018-01-26T16:07:36.898Z,84.40
2018-01-26T16:10:04.392Z,84.90
2018-01-26T16:12:32.650Z,86.00
2018-01-26T16:15:00.142Z,86.00
2018-01-26T16:17:28.395Z,86.90
2018-01-26T16:19:55.871Z,86.90
2018-01-26T16:22:23.363Z,87.60
2018-01-26T16:24:50.839Z,87.90
2018-01-26T16:27:19.094Z,88.20
2018-01-26T16:29:46.562Z,88.20
2018-01-26T16:32:14.359Z,88.50
2018-01-26T16:34:41.831Z,88.20
2018-01-26T16:37:09.312Z,88.60
2018-01-26T16:39:37.563Z,89.20
2018-01-26T16:42:05.067Z,89.70
2018-01-26T16:44:32.543Z,89.70
2018-01-26T16:47:00.823Z,90.00
2018-01-26T16:49:28.314Z,90.00
2018-01-26T16:51:56.554Z,90.20
2018-01-26T16:54:24.028Z,90.10
2018-01-26T16:56:51.518Z,90.20
2018-01-26T16:59:18.996Z,90.30
2018-01-26T17:01:46.480Z,90.40
2018-01-26T17:04:14.748Z,90.90
2018-01-26T17:06:42.243Z,90.90
2018-01-26T17:09:10.554Z,91.00
2018-01-26T17:11:38.022Z,91.00
2018-01-26T17:14:05.556Z,91.10
2018-01-26T17:16:33.798Z,91.30
2018-01-26T17:19:01.306Z,91.10
2018-01-26T17:21:43.219Z,91.00
2018-01-26T17:24:10.711Z,91.90
2018-01-26T17:26:38.952Z,91.30
2018-01-26T17:29:06.424Z,91.30
2018-01-26T17:31:33.948Z,91.30
2018-01-26T17:34:01.487Z,91.30
2018-01-26T17:36:28.981Z,91.10
2018-01-26T17:38:57.253Z,91.30
2018-01-26T17:41:24.732Z,91.30
2018-01-26T17:43:52.975Z,91.50
2018-01-26T17:46:20.475Z,91.50
2018-01-26T17:48:48.046Z,91.40
2018-01-26T17:51:15.519Z,91.50
2018-01-26T17:53:43.007Z,91.60
2018-01-26T17:56:11.247Z,91.90
2018-01-26T17:58:38.859Z,91.90
2018-01-26T18:01:07.103Z,91.80
2018-01-26T18:03:34.580Z,91.70
2018-01-26T18:06:02.078Z,91.80
2018-01-26T18:08:29.584Z,91.80
2018-01-26T18:10:57.819Z,91.80
2018-01-26T18:13:25.299Z,91.80
2018-01-26T18:15:53.116Z,91.90
2018-01-26T18:18:20.590Z,92.10
2018-01-26T18:20:48.068Z,92.10
2018-01-26T18:23:15.627Z,92.20
2018-01-26T18:25:43.200Z,92.20
2018-01-26T18:28:10.772Z,92.20
2018-01-26T18:30:38.324Z,92.20
2018-01-26T18:33:06.591Z,92.20
2018-01-26T18:35:34.070Z,92.20
2018-01-26T18:38:01.546Z,92.20
2018-01-26T18:40:29.110Z,92.20
2018-01-26T18:42:56.690Z,92.50
2018-01-26T18:45:25.132Z,92.10
2018-01-26T18:47:52.652Z,92.10
2018-01-26T18:50:20.123Z,92.10
2018-01-26T18:52:47.686Z,92.10
2018-01-26T18:55:15.167Z,92.40
2018-01-26T18:57:42.769Z,92.00
2018-01-26T19:00:10.322Z,92.10
2018-01-26T19:02:38.595Z,92.10
2018-01-26T19:05:06.082Z,92.10
2018-01-26T19:07:34.354Z,92.50
2018-01-26T19:10:01.842Z,92.40
2018-01-26T19:12:30.104Z,92.50
2018-01-26T19:14:57.690Z,92.50
2018-01-26T19:17:25.167Z,92.40
2018-01-26T19:19:53.450Z,92.50
2018-01-26T19:22:21.712Z,92.30
2018-01-26T19:24:49.187Z,92.60
2018-01-26T19:27:16.703Z,92.00
2018-01-26T19:29:44.277Z,91.90
2018-01-26T19:32:11.848Z,91.90
2018-01-26T19:34:39.421Z,92.10
2018-01-26T19:37:06.993Z,92.10
2018-01-26T19:39:34.491Z,92.30
2018-01-26T19:42:01.964Z,92.20
2018-01-26T19:44:29.510Z,92.30
2018-01-26T19:46:56.989Z,92.30
2018-01-26T19:49:24.491Z,92.30
2018-01-26T19:51:51.971Z,92.20
2018-01-26T19:54:19.446Z,92.20
2018-01-26T19:56:46.938Z,92.30
2018-01-26T19:59:15.186Z,92.50
2018-01-26T20:01:42.681Z,92.50
2018-01-26T20:04:10.162Z,92.50
2018-01-26T20:06:55.439Z,92.50
2018-01-26T20:09:25.882Z,92.50
2018-01-26T20:11:59.039Z,92.60
2018-01-26T20:14:26.590Z,92.70
2018-01-26T20:16:54.063Z,92.70
2018-01-26T20:19:21.564Z,92.60
2018-01-26T20:21:49.044Z,92.40
2018-01-26T20:24:16.534Z,92.50
2018-01-26T20:26:44.095Z,92.70
2018-01-26T20:29:11.682Z,92.60
2018-01-26T20:31:39.256Z,92.60
2018-01-26T20:34:06.731Z,92.60
2018-01-26T20:36:34.223Z,92.70
2018-01-26T20:39:02.475Z,92.80
2018-01-26T20:41:30.258Z,92.80
2018-01-26T20:43:57.730Z,92.70
2018-01-26T20:46:25.202Z,92.60
2018-01-26T20:48:52.710Z,92.50
2018-01-26T20:51:20.187Z,92.40
2018-01-26T20:53:47.710Z,92.30
2018-01-26T20:56:15.283Z,92.30
2018-01-26T20:58:42.759Z,92.30
2018-01-26T21:01:10.256Z,92.40
2018-01-26T21:03:37.795Z,92.60
2018-01-26T21:06:05.287Z,92.40
2018-01-26T21:08:33.531Z,92.30
2018-01-26T21:11:01.024Z,92.30
2018-01-26T21:13:28.503Z,92.40
2018-01-26T21:15:56.747Z,92.60
2018-01-26T21:18:24.244Z,92.40
2018-01-26T21:20:51.723Z,92.40
2018-01-26T21:23:19.295Z,92.40
2018-01-26T21:25:46.775Z,92.30
2018-01-26T21:28:15.088Z,92.20
2018-01-26T21:30:42.665Z,92.20
2018-01-26T21:33:10.202Z,92.20
2018-01-26T21:35:37.690Z,92.30
2018-01-26T21:38:05.963Z,92.30
2018-01-26T21:40:33.446Z,92.30
2018-01-26T21:43:01.749Z,92.20
2018-01-26T21:45:29.596Z,92.20
2018-01-26T21:47:57.167Z,92.10
2018-01-26T21:50:24.646Z,92.20
2018-01-26T21:52:52.960Z,92.80
2018-01-26T21:55:20.509Z,92.80
2018-01-26T21:57:48.820Z,92.80
2018-01-26T22:00:16.393Z,92.50
2018-01-26T22:02:43.890Z,92.50
2018-01-26T22:05:15.220Z,92.40
2018-01-26T22:07:43.470Z,92.60
2018-01-26T22:10:10.982Z,92.60
2018-01-26T22:12:39.218Z,92.50
2018-01-26T22:15:06.707Z,92.40
2018-01-26T22:17:34.179Z,92.40
2018-01-26T22:20:01.751Z,92.50
2018-01-26T22:22:29.230Z,92.40
2018-01-26T22:24:57.515Z,92.60
2018-01-26T22:27:25.039Z,92.20
2018-01-26T22:29:52.502Z,92.30
2018-01-26T22:32:19.991Z,92.20
2018-01-26T22:34:47.495Z,92.10
2018-01-26T22:37:14.982Z,92.00
2018-01-26T22:39:43.223Z,92.00
2018-01-26T22:42:11.059Z,92.00
2018-01-26T22:44:38.599Z,91.80
2018-01-26T22:47:06.075Z,91.60
2018-01-26T22:49:33.563Z,91.40
2018-01-26T22:52:01.831Z,91.60
2018-01-26T22:54:29.322Z,91.50
2018-01-26T22:56:57.691Z,92.00
2018-01-26T22:59:25.500Z,92.00
2018-01-26T23:01:53.047Z,91.90
2018-01-26T23:04:21.303Z,91.80
2018-01-26T23:06:48.790Z,91.80
2018-01-26T23:09:16.383Z,91.80
2018-01-26T23:11:44.697Z,92.00
2018-01-26T23:14:12.177Z,92.00
2018-01-26T23:16:39.699Z,91.80
2018-01-26T23:19:07.275Z,91.70
2018-01-26T23:21:34.751Z,91.50
2018-01-26T23:24:02.315Z,91.20
2018-01-26T23:26:29.830Z,91.30
2018-01-26T23:28:57.327Z,91.20
2018-01-26T23:31:24.803Z,91.20
2018-01-26T23:33:52.306Z,91.60
2018-01-26T23:36:19.901Z,91.70
2018-01-26T23:38:47.375Z,91.30
2018-01-26T23:41:14.863Z,91.30
2018-01-26T23:43:42.339Z,91.30
2018-01-26T23:46:09.831Z,91.20
2018-01-26T23:48:37.307Z,91.30
2018-01-26T23:51:04.782Z,91.20
2018-01-26T23:53:32.266Z,91.40
2018-01-26T23:55:59.738Z,91.60
2018-01-26T23:58:27.305Z,92.00
